Time,TemperatureF,DewpointF,PressureIn,WindDirection,WindDirectionDegrees,WindSpeedMPH,WindSpeedGustMPH,Humidity,HourlyPrecipIn,Conditions,Clouds,dailyrainin,SoftwareType,DateUTC
2013-10-04 00:00:00,71.8,68.7,30.05,ESE,110,0.0,1.0,90,0.00,,,0.00,meteohub,2013-10-04 05:00:00,
2013-10-04 00:03:00,71.8,68.7,30.05,ESE,110,0.0,1.0,90,0.00,,,0.00,meteohub,2013-10-04 05:03:00,
2013-10-04 00:07:00,71.6,68.5,30.05,ESE,110,0.0,1.0,90,0.00,,,0.00,meteohub,2013-10-04 05:07:00,
2013-10-04 00:10:00,71.4,68.7,30.05,ESE,110,0.0,1.0,91,0.00,,,0.00,meteohub,2013-10-04 05:10:00,
2013-10-04 00:11:00,71.4,68.7,30.05,ESE,110,0.0,0.0,91,0.00,,,0.00,meteohub,2013-10-04 05:11:00,
2013-10-04 00:13:00,71.2,68.5,30.05,ESE,110,0.0,0.0,91,0.00,,,0.00,meteohub,2013-10-04 05:13:00,
2013-10-04 00:16:00,71.2,68.5,30.05,ESE,110,0.0,0.0,91,0.00,,,0.00,meteohub,2013-10-04 05:16:00,
2013-10-04 00:22:00,71.1,68.4,30.05,ESE,110,0.0,0.0,91,0.00,,,0.00,meteohub,2013-10-04 05:22:00,
2013-10-04 00:27:00,71.1,68.5,30.05,ESE,110,0.0,0.0,92,0.00,,,0.00,meteohub,2013-10-04 05:27:00,
2013-10-04 00:29:00,71.1,68.5,30.04,ESE,110,0.0,0.0,92,0.00,,,0.00,meteohub,2013-10-04 05:29:00,
2013-10-04 00:35:00,71.1,68.5,30.04,ESE,110,0.0,0.0,92,0.00,,,0.00,meteohub,2013-10-04 05:35:00,
2013-10-04 00:40:00,70.9,68.4,30.04,ESE,110,0.0,0.0,92,0.00,,,0.00,meteohub,2013-10-04 05:40:00,
2013-10-04 00:45:00,70.5,68.0,30.04,ESE,110,0.0,0.0,92,0.00,,,0.00,meteohub,2013-10-04 05:45:00,
2013-10-04 00:50:00,70.3,67.8,30.04,ESE,110,0.0,0.0,92,0.00,,,0.00,meteohub,2013-10-04 05:50:00,
2013-10-04 00:55:00,70.3,67.8,30.04,ESE,110,0.0,1.0,92,0.00,,,0.00,meteohub,2013-10-04 05:55:00,
2013-10-04 01:00:00,70.3,67.8,30.04,ESE,110,0.0,1.0,92,0.00,,,0.00,meteohub,2013-10-04 06:00:00,
2013-10-04 01:05:00,70.2,68.0,30.04,ESE,110,0.0,1.0,93,0.00,,,0.00,meteohub,2013-10-04 06:05:00,
2013-10-04 01:10:00,70.2,68.0,30.05,ESE,110,0.0,1.0,93,0.00,,,0.00,meteohub,2013-10-04 06:10:00,
2013-10-04 01:15:00,70.0,67.8,30.05,ESE,110,0.0,0.0,93,0.00,,,0.00,meteohub,2013-10-04 06:15:00,
2013-10-04 01:20:00,70.0,67.8,30.04,ESE,110,0.0,0.0,93,0.00,,,0.00,meteohub,2013-10-04 06:20:00,
2013-10-04 01:25:00,69.8,67.6,30.04,ESE,110,0.0,0.0,93,0.00,,,0.00,meteohub,2013-10-04 06:25:00,
2013-10-04 01:31:00,69.6,67.5,30.04,ESE,110,0.0,0.0,93,0.00,,,0.00,meteohub,2013-10-04 06:31:00,
2013-10-04 01:36:00,69.6,67.5,30.04,ESE,110,0.0,0.0,93,0.00,,,0.00,meteohub,2013-10-04 06:36:00,
2013-10-04 01:41:00,69.4,67.6,30.04,ESE,110,0.0,0.0,94,0.00,,,0.00,meteohub,2013-10-04 06:41:00,
2013-10-04 01:46:00,69.4,67.6,30.04,ESE,110,0.0,0.0,94,0.00,,,0.00,meteohub,2013-10-04 06:46:00,
2013-10-04 01:51:00,69.4,67.6,30.04,ESE,110,0.0,0.0,94,0.00,,,0.00,meteohub,2013-10-04 06:51:00,
2013-10-04 01:56:00,69.4,67.6,30.04,ESE,110,0.0,0.0,94,0.00,,,0.00,meteohub,2013-10-04 06:56:00,
2013-10-04 02:01:00,69.4,67.6,30.04,ESE,110,0.0,0.0,94,0.00,,,0.00,meteohub,2013-10-04 07:01:00,
2013-10-04 02:06:00,69.4,67.6,30.04,ESE,110,0.0,1.0,94,0.00,,,0.00,meteohub,2013-10-04 07:06:00,
2013-10-04 02:11:00,69.4,67.6,30.04,ESE,110,0.0,1.0,94,0.00,,,0.00,meteohub,2013-10-04 07:11:00,
2013-10-04 02:17:00,69.6,67.8,30.04,ESE,110,0.0,1.0,94,0.00,,,0.00,meteohub,2013-10-04 07:17:00,
2013-10-04 02:22:00,69.4,67.6,30.04,ESE,110,0.0,1.0,94,0.00,,,0.00,meteohub,2013-10-04 07:22:00,
2013-10-04 02:27:00,69.4,67.6,30.04,ESE,110,1.0,1.0,94,0.00,,,0.00,meteohub,2013-10-04 07:27:00,
2013-10-04 02:32:00,69.4,67.6,30.04,ESE,110,1.0,2.0,94,0.00,,,0.00,meteohub,2013-10-04 07:32:00,
2013-10-04 02:37:00,69.4,67.6,30.03,ESE,110,0.0,2.0,94,0.00,,,0.00,meteohub,2013-10-04 07:37:00,
2013-10-04 02:42:00,69.4,67.6,30.03,ESE,110,0.0,2.0,94,0.00,,,0.00,meteohub,2013-10-04 07:42:00,
2013-10-04 02:47:00,69.3,67.5,30.03,ESE,110,0.0,1.0,94,0.00,,,0.00,meteohub,2013-10-04 07:47:00,
2013-10-04 02:52:00,69.3,67.5,30.03,ESE,110,0.0,0.0,94,0.00,,,0.00,meteohub,2013-10-04 07:52:00,
2013-10-04 02:57:00,69.3,67.5,30.03,ESE,110,0.0,1.0,94,0.00,,,0.00,meteohub,2013-10-04 07:57:00,
2013-10-04 03:02:00,69.3,67.5,30.03,ESE,110,1.0,1.0,94,0.00,,,0.00,meteohub,2013-10-04 08:02:00,
2013-10-04 03:07:00,69.3,67.5,30.03,ESE,110,1.0,1.0,94,0.00,,,0.00,meteohub,2013-10-04 08:07:00,
2013-10-04 03:12:00,69.3,67.5,30.03,ESE,110,0.0,2.0,94,0.00,,,0.00,meteohub,2013-10-04 08:12:00,
2013-10-04 03:17:00,69.3,67.5,30.03,ESE,110,1.0,2.0,94,0.00,,,0.00,meteohub,2013-10-04 08:17:00,
2013-10-04 03:22:00,69.3,67.5,30.03,ESE,110,0.0,2.0,94,0.00,,,0.00,meteohub,2013-10-04 08:22:00,
2013-10-04 03:27:00,69.3,67.5,30.03,ESE,110,0.0,2.0,94,0.00,,,0.00,meteohub,2013-10-04 08:27:00,
2013-10-04 03:32:00,69.3,67.5,30.03,ESE,110,1.0,2.0,94,0.00,,,0.00,meteohub,2013-10-04 08:32:00,
2013-10-04 03:37:00,69.1,67.3,30.03,ENE,68,0.0,2.0,94,0.00,,,0.00,meteohub,2013-10-04 08:37:00,
2013-10-04 03:42:00,69.1,67.3,30.03,ENE,74,0.0,2.0,94,0.00,,,0.00,meteohub,2013-10-04 08:42:00,
2013-10-04 03:47:00,69.1,67.3,30.03,ENE,74,0.0,2.0,94,0.00,,,0.00,meteohub,2013-10-04 08:47:00,
2013-10-04 03:52:00,69.1,67.3,30.03,ENE,74,0.0,2.0,94,0.00,,,0.00,meteohub,2013-10-04 08:52:00,
2013-10-04 03:57:00,69.1,67.3,30.03,East,89,0.0,2.0,94,0.00,,,0.00,meteohub,2013-10-04 08:57:00,
2013-10-04 04:02:00,69.1,67.3,30.03,East,89,0.0,2.0,94,0.00,,,0.00,meteohub,2013-10-04 09:02:00,
2013-10-04 04:07:00,69.1,67.3,30.03,East,89,1.0,2.0,94,0.00,,,0.00,meteohub,2013-10-04 09:07:00,
2013-10-04 04:12:00,69.1,66.9,30.04,East,89,0.0,1.0,93,0.00,,,0.00,meteohub,2013-10-04 09:12:00,
2013-10-04 04:17:00,69.1,66.9,30.04,East,89,0.0,1.0,93,0.00,,,0.00,meteohub,2013-10-04 09:17:00,
2013-10-04 04:22:00,69.1,66.9,30.04,East,89,1.0,2.0,93,0.00,,,0.00,meteohub,2013-10-04 09:22:00,
2013-10-04 04:27:00,69.1,66.9,30.04,East,89,1.0,2.0,93,0.00,,,0.00,meteohub,2013-10-04 09:27:00,
2013-10-04 04:32:00,69.1,66.9,30.04,East,89,0.0,3.0,93,0.00,,,0.00,meteohub,2013-10-04 09:32:00,
2013-10-04 04:37:00,68.9,66.7,30.04,East,89,0.0,3.0,93,0.00,,,0.00,meteohub,2013-10-04 09:37:00,
2013-10-04 04:42:00,68.9,67.1,30.04,East,89,0.0,2.0,94,0.00,,,0.00,meteohub,2013-10-04 09:42:00,
2013-10-04 04:47:00,68.9,66.7,30.04,East,89,1.0,2.0,93,0.00,,,0.00,meteohub,2013-10-04 09:47:00,
2013-10-04 04:52:00,68.9,67.1,30.04,East,99,0.0,3.0,94,0.00,,,0.00,meteohub,2013-10-04 09:52:00,
2013-10-04 04:57:00,68.9,66.7,30.05,East,99,1.0,3.0,93,0.00,,,0.00,meteohub,2013-10-04 09:57:00,
2013-10-04 05:02:00,69.1,66.9,30.04,East,99,0.0,3.0,93,0.00,,,0.00,meteohub,2013-10-04 10:02:00,
2013-10-04 05:07:00,69.1,66.9,30.05,East,99,1.0,2.0,93,0.00,,,0.00,meteohub,2013-10-04 10:07:00,
2013-10-04 05:12:00,69.1,66.9,30.05,East,99,2.0,2.0,93,0.00,,,0.00,meteohub,2013-10-04 10:12:00,
2013-10-04 05:17:00,68.9,66.7,30.05,East,86,3.0,3.0,93,0.00,,,0.00,meteohub,2013-10-04 10:17:00,
2013-10-04 05:22:00,68.9,66.7,30.05,East,93,1.0,3.0,93,0.00,,,0.00,meteohub,2013-10-04 10:22:00,
2013-10-04 05:27:00,69.1,66.9,30.05,East,96,1.0,3.0,93,0.00,,,0.00,meteohub,2013-10-04 10:27:00,
2013-10-04 05:32:00,69.1,66.9,30.06,East,96,0.0,3.0,93,0.00,,,0.00,meteohub,2013-10-04 10:32:00,
2013-10-04 05:37:00,68.7,66.6,30.05,East,96,0.0,3.0,93,0.00,,,0.00,meteohub,2013-10-04 10:37:00,
2013-10-04 05:42:00,68.7,66.6,30.06,East,95,0.0,3.0,93,0.00,,,0.00,meteohub,2013-10-04 10:42:00,
2013-10-04 05:47:00,68.7,66.6,30.06,East,95,2.0,2.0,93,0.00,,,0.00,meteohub,2013-10-04 10:47:00,
2013-10-04 05:52:00,68.5,66.4,30.06,East,96,0.0,2.0,93,0.00,,,0.00,meteohub,2013-10-04 10:52:00,
2013-10-04 05:57:00,68.5,66.4,30.06,East,96,1.0,2.0,93,0.00,,,0.00,meteohub,2013-10-04 10:57:00,
2013-10-04 06:02:00,68.5,66.4,30.06,East,96,0.0,2.0,93,0.00,,,0.00,meteohub,2013-10-04 11:02:00,
2013-10-04 06:07:00,68.4,66.2,30.06,East,96,0.0,2.0,93,0.00,,,0.00,meteohub,2013-10-04 11:07:00,
2013-10-04 06:12:00,68.4,66.2,30.06,East,96,0.0,2.0,93,0.00,,,0.00,meteohub,2013-10-04 11:12:00,
2013-10-04 06:17:00,68.4,66.6,30.06,East,96,0.0,2.0,94,0.00,,,0.00,meteohub,2013-10-04 11:17:00,
2013-10-04 06:22:00,68.4,66.6,30.07,East,96,1.0,2.0,94,0.00,,,0.00,meteohub,2013-10-04 11:22:00,
2013-10-04 06:27:00,68.4,66.6,30.07,East,96,0.0,2.0,94,0.00,,,0.00,meteohub,2013-10-04 11:27:00,
2013-10-04 06:32:00,68.4,66.6,30.07,ESE,109,0.0,2.0,94,0.00,,,0.00,meteohub,2013-10-04 11:32:00,
2013-10-04 06:37:00,68.2,66.4,30.07,ESE,109,0.0,3.0,94,0.00,,,0.00,meteohub,2013-10-04 11:37:00,
2013-10-04 06:42:00,68.2,66.4,30.07,ESE,109,0.0,3.0,94,0.00,,,0.00,meteohub,2013-10-04 11:42:00,
2013-10-04 06:47:00,68.2,66.4,30.08,East,87,2.0,2.0,94,0.00,,,0.00,meteohub,2013-10-04 11:47:00,
2013-10-04 06:52:00,68.2,66.4,30.08,East,87,1.0,3.0,94,0.00,,,0.00,meteohub,2013-10-04 11:52:00,
2013-10-04 06:57:00,68.2,66.4,30.08,East,87,1.0,3.0,94,0.00,,,0.00,meteohub,2013-10-04 11:57:00,
2013-10-04 07:02:00,68.2,66.4,30.08,East,87,1.0,3.0,94,0.00,,,0.00,meteohub,2013-10-04 12:02:00,
2013-10-04 07:07:00,68.2,66.4,30.08,East,101,1.0,2.0,94,0.00,,,0.00,meteohub,2013-10-04 12:07:00,
2013-10-04 07:12:00,68.4,66.6,30.09,East,101,0.0,2.0,94,0.00,,,0.00,meteohub,2013-10-04 12:12:00,
2013-10-04 07:17:00,68.4,66.6,30.09,East,101,0.0,2.0,94,0.00,,,0.00,meteohub,2013-10-04 12:17:00,
2013-10-04 07:22:00,68.5,66.7,30.09,East,92,2.0,3.0,94,0.00,,,0.00,meteohub,2013-10-04 12:22:00,
2013-10-04 07:27:00,68.7,66.9,30.09,ESE,106,1.0,4.0,94,0.00,,,0.00,meteohub,2013-10-04 12:27:00,
2013-10-04 07:32:00,69.1,66.9,30.09,East,100,0.0,4.0,93,0.00,,,0.00,meteohub,2013-10-04 12:32:00,
2013-10-04 07:37:00,69.1,66.9,30.09,East,98,1.0,4.0,93,0.00,,,0.00,meteohub,2013-10-04 12:37:00,
2013-10-04 07:42:00,69.3,67.1,30.09,East,91,1.0,3.0,93,0.00,,,0.00,meteohub,2013-10-04 12:42:00,
2013-10-04 07:47:00,69.6,67.5,30.10,East,92,1.0,3.0,93,0.00,,,0.00,meteohub,2013-10-04 12:47:00,
2013-10-04 07:52:00,70.2,67.6,30.09,East,88,3.0,6.0,92,0.00,,,0.00,meteohub,2013-10-04 12:52:00,
2013-10-04 07:57:00,70.9,68.4,30.10,East,89,0.0,6.0,92,0.00,,,0.00,meteohub,2013-10-04 12:57:00,
2013-10-04 08:02:00,71.2,68.5,30.10,ESE,105,2.0,6.0,91,0.00,,,0.00,meteohub,2013-10-04 13:02:00,
2013-10-04 08:07:00,72.0,68.9,30.10,East,89,1.0,8.0,90,0.00,,,0.00,meteohub,2013-10-04 13:07:00,
2013-10-04 08:12:00,72.3,68.9,30.09,East,94,5.0,8.0,89,0.00,,,0.00,meteohub,2013-10-04 13:12:00,
2013-10-04 08:17:00,72.7,69.3,30.10,East,83,5.0,8.0,89,0.00,,,0.00,meteohub,2013-10-04 13:17:00,
2013-10-04 08:22:00,73.0,69.3,30.10,East,86,1.0,7.0,88,0.00,,,0.00,meteohub,2013-10-04 13:22:00,
2013-10-04 08:27:00,73.2,69.4,30.10,ENE,74,1.0,7.0,88,0.00,,,0.00,meteohub,2013-10-04 13:27:00,
2013-10-04 08:32:00,73.6,69.4,30.10,ESE,122,4.0,7.0,87,0.00,,,0.00,meteohub,2013-10-04 13:32:00,
2013-10-04 08:37:00,73.9,69.8,30.10,ESE,103,1.0,7.0,87,0.00,,,0.00,meteohub,2013-10-04 13:37:00,
2013-10-04 08:42:00,74.5,70.3,30.10,ENE,75,5.0,7.0,87,0.00,,,0.00,meteohub,2013-10-04 13:42:00,
2013-10-04 08:47:00,74.8,70.3,30.10,East,95,9.0,9.0,86,0.00,,,0.00,meteohub,2013-10-04 13:47:00,
2013-10-04 08:52:00,75.0,70.2,30.10,SE,129,3.0,9.0,85,0.00,,,0.00,meteohub,2013-10-04 13:52:00,
2013-10-04 08:57:00,75.6,70.7,30.10,ESE,122,2.0,9.0,85,0.00,,,0.00,meteohub,2013-10-04 13:57:00,
2013-10-04 09:02:00,75.9,70.7,30.10,ENE,64,2.0,9.0,84,0.00,,,0.00,meteohub,2013-10-04 14:02:00,
2013-10-04 09:07:00,76.5,71.2,30.10,ESE,114,1.0,7.0,84,0.00,,,0.00,meteohub,2013-10-04 14:07:00,
2013-10-04 09:12:00,77.0,71.4,30.10,East,91,5.0,7.0,83,0.00,,,0.00,meteohub,2013-10-04 14:12:00,
2013-10-04 09:17:00,77.2,71.6,30.10,ENE,73,3.0,7.0,83,0.00,,,0.00,meteohub,2013-10-04 14:17:00,
2013-10-04 09:22:00,77.5,71.6,30.10,SE,134,0.0,7.0,82,0.00,,,0.00,meteohub,2013-10-04 14:22:00,
2013-10-04 09:27:00,78.3,72.0,30.10,ESE,112,4.0,7.0,81,0.00,,,0.00,meteohub,2013-10-04 14:27:00,
2013-10-04 09:32:00,78.6,72.0,30.10,ESE,122,4.0,8.0,80,0.00,,,0.00,meteohub,2013-10-04 14:32:00,
2013-10-04 09:37:00,78.6,71.6,30.10,SE,131,2.0,10.0,79,0.00,,,0.00,meteohub,2013-10-04 14:37:00,
2013-10-04 09:42:00,79.0,71.6,30.10,East,87,7.0,10.0,78,0.00,,,0.00,meteohub,2013-10-04 14:42:00,
2013-10-04 09:47:00,79.2,71.8,30.10,SE,126,1.0,10.0,78,0.00,,,0.00,meteohub,2013-10-04 14:47:00,
2013-10-04 09:52:00,79.5,71.6,30.10,East,79,7.0,9.0,77,0.00,,,0.00,meteohub,2013-10-04 14:52:00,
2013-10-04 09:57:00,79.5,71.6,30.10,SE,145,1.0,10.0,77,0.00,,,0.00,meteohub,2013-10-04 14:57:00,
2013-10-04 10:02:00,80.1,72.1,30.10,East,85,6.0,10.0,77,0.00,,,0.00,meteohub,2013-10-04 15:02:00,
2013-10-04 10:07:00,80.2,71.6,30.10,ESE,107,7.0,10.0,75,0.00,,,0.00,meteohub,2013-10-04 15:07:00,
2013-10-04 10:12:00,80.8,71.8,30.10,ENE,68,2.0,11.0,74,0.00,,,0.00,meteohub,2013-10-04 15:12:00,
2013-10-04 10:17:00,81.1,71.6,30.11,East,98,10.0,11.0,73,0.00,,,0.00,meteohub,2013-10-04 15:17:00,
2013-10-04 10:20:00,81.0,71.4,30.11,East,93,6.0,13.0,73,0.00,,,0.00,meteohub,2013-10-04 15:20:00,
2013-10-04 10:25:00,81.0,72.0,30.11,ENE,72,5.0,14.0,74,0.00,,,0.00,meteohub,2013-10-04 15:25:00,
2013-10-04 10:30:00,81.1,72.1,30.11,SE,125,2.0,14.0,74,0.00,,,0.00,meteohub,2013-10-04 15:30:00,
2013-10-04 10:35:00,81.9,72.3,30.11,East,91,2.0,14.0,73,0.00,,,0.00,meteohub,2013-10-04 15:35:00,
2013-10-04 10:40:00,82.6,72.7,30.11,East,95,2.0,10.0,72,0.00,,,0.00,meteohub,2013-10-04 15:40:00,
2013-10-04 10:45:00,82.6,71.8,30.11,ENE,74,4.0,11.0,70,0.00,,,0.00,meteohub,2013-10-04 15:45:00,
2013-10-04 10:51:00,82.4,72.0,30.10,SE,135,6.0,11.0,71,0.00,,,0.00,meteohub,2013-10-04 15:51:00,
2013-10-04 10:56:00,82.4,72.0,30.10,East,79,5.0,13.0,71,0.00,,,0.00,meteohub,2013-10-04 15:56:00,
2013-10-04 11:01:00,82.8,72.0,30.10,ENE,78,7.0,13.0,70,0.00,,,0.00,meteohub,2013-10-04 16:01:00,
2013-10-04 11:06:00,82.9,72.1,30.10,SSE,152,2.0,13.0,70,0.00,,,0.00,meteohub,2013-10-04 16:06:00,
2013-10-04 11:11:00,83.7,72.9,30.10,South,170,3.0,12.0,70,0.00,,,0.00,meteohub,2013-10-04 16:11:00,
2013-10-04 11:16:00,83.7,71.6,30.10,East,95,3.0,11.0,67,0.00,,,0.00,meteohub,2013-10-04 16:16:00,
2013-10-04 11:21:00,83.5,71.8,30.10,East,83,3.0,11.0,68,0.00,,,0.00,meteohub,2013-10-04 16:21:00,
2013-10-04 11:26:00,83.7,72.3,30.10,East,97,3.0,11.0,69,0.00,,,0.00,meteohub,2013-10-04 16:26:00,
2013-10-04 11:31:00,84.4,72.1,30.09,East,94,11.0,11.0,67,0.00,,,0.00,meteohub,2013-10-04 16:31:00,
2013-10-04 11:37:00,84.0,72.0,30.10,SE,136,4.0,11.0,67,0.00,,,0.00,meteohub,2013-10-04 16:37:00,
2013-10-04 11:42:00,84.6,72.0,30.09,East,95,2.0,13.0,66,0.00,,,0.00,meteohub,2013-10-04 16:42:00,
2013-10-04 11:47:00,84.7,71.6,30.09,ESE,118,3.0,13.0,65,0.00,,,0.00,meteohub,2013-10-04 16:47:00,
2013-10-04 11:52:00,84.7,72.1,30.09,ENE,64,4.0,13.0,66,0.00,,,0.00,meteohub,2013-10-04 16:52:00,
2013-10-04 11:57:00,84.9,71.4,30.09,East,84,3.0,13.0,64,0.00,,,0.00,meteohub,2013-10-04 16:57:00,
2013-10-04 12:02:00,84.9,71.4,30.09,ESE,115,3.0,9.0,64,0.00,,,0.00,meteohub,2013-10-04 17:02:00,
2013-10-04 12:07:00,84.9,70.9,30.09,ESE,115,2.0,11.0,63,0.00,,,0.00,meteohub,2013-10-04 17:07:00,
2013-10-04 12:12:00,85.6,72.1,30.09,East,83,7.0,11.0,64,0.00,,,0.00,meteohub,2013-10-04 17:12:00,
2013-10-04 12:17:00,86.0,72.0,30.09,SSE,151,4.0,9.0,63,0.00,,,0.00,meteohub,2013-10-04 17:17:00,
2013-10-04 12:22:00,86.2,71.6,30.08,SE,145,0.0,9.0,62,0.00,,,0.00,meteohub,2013-10-04 17:22:00,
2013-10-04 12:27:00,86.4,71.2,30.08,SE,127,4.0,9.0,61,0.00,,,0.00,meteohub,2013-10-04 17:27:00,
2013-10-04 12:32:00,86.2,71.1,30.08,East,87,3.0,9.0,61,0.00,,,0.00,meteohub,2013-10-04 17:32:00,
2013-10-04 12:37:00,86.2,72.1,30.08,East,79,1.0,11.0,63,0.00,,,0.00,meteohub,2013-10-04 17:37:00,
2013-10-04 13:02:00,86.9,70.3,30.06,SE,131,2.0,9.0,58,0.00,,,0.00,meteohub,2013-10-04 18:02:00,
2013-10-04 13:07:00,87.1,71.1,30.06,ENE,73,1.0,8.0,59,0.00,,,0.00,meteohub,2013-10-04 18:07:00,
2013-10-04 13:12:00,87.6,71.1,30.05,ENE,69,3.0,8.0,58,0.00,,,0.00,meteohub,2013-10-04 18:12:00,
2013-10-04 13:17:00,88.0,71.8,30.05,ESE,118,0.0,8.0,59,0.00,,,0.00,meteohub,2013-10-04 18:17:00,
2013-10-04 13:22:00,87.8,70.7,30.05,East,100,7.0,9.0,57,0.00,,,0.00,meteohub,2013-10-04 18:22:00,
2013-10-04 13:27:00,87.6,69.4,30.04,ESE,106,2.0,11.0,55,0.00,,,0.00,meteohub,2013-10-04 18:27:00,
2013-10-04 13:32:00,87.8,70.7,30.04,East,86,2.0,11.0,57,0.00,,,0.00,meteohub,2013-10-04 18:32:00,
2013-10-04 13:37:00,87.8,70.2,30.04,South,173,2.0,11.0,56,0.00,,,0.00,meteohub,2013-10-04 18:37:00,
2013-10-04 13:42:00,88.0,70.3,30.04,East,89,2.0,8.0,56,0.00,,,0.00,meteohub,2013-10-04 18:42:00,
2013-10-04 13:47:00,88.0,70.3,30.04,East,94,2.0,8.0,56,0.00,,,0.00,meteohub,2013-10-04 18:47:00,
2013-10-04 13:52:00,88.2,70.5,30.04,ESE,110,3.0,8.0,56,0.00,,,0.00,meteohub,2013-10-04 18:52:00,
2013-10-04 13:57:00,88.3,70.7,30.04,SSE,168,1.0,10.0,56,0.00,,,0.00,meteohub,2013-10-04 18:57:00,
2013-10-04 14:02:00,88.3,70.7,30.03,East,85,7.0,10.0,56,0.00,,,0.00,meteohub,2013-10-04 19:02:00,
2013-10-04 14:07:00,88.3,71.2,30.04,ESE,110,5.0,10.0,57,0.00,,,0.00,meteohub,2013-10-04 19:07:00,
2013-10-04 14:12:00,88.3,70.2,30.04,ESE,117,3.0,11.0,55,0.00,,,0.00,meteohub,2013-10-04 19:12:00,
2013-10-04 14:17:00,88.5,70.3,30.03,East,86,1.0,11.0,55,0.00,,,0.00,meteohub,2013-10-04 19:17:00,
2013-10-04 14:22:00,88.5,71.4,30.03,East,93,5.0,11.0,57,0.00,,,0.00,meteohub,2013-10-04 19:22:00,
2013-10-04 14:27:00,88.7,69.4,30.03,ESE,120,8.0,8.0,53,0.00,,,0.00,meteohub,2013-10-04 19:27:00,
2013-10-04 14:32:00,88.9,70.7,30.03,East,81,3.0,10.0,55,0.00,,,0.00,meteohub,2013-10-04 19:32:00,
2013-10-04 14:37:00,89.1,70.2,30.03,ESE,114,4.0,10.0,54,0.00,,,0.00,meteohub,2013-10-04 19:37:00,
2013-10-04 14:42:00,89.1,70.7,30.03,SE,136,3.0,10.0,55,0.00,,,0.00,meteohub,2013-10-04 19:42:00,
2013-10-04 14:47:00,88.9,71.1,30.03,ESE,117,4.0,6.0,56,0.00,,,0.00,meteohub,2013-10-04 19:47:00,
2013-10-04 14:52:00,89.1,70.2,30.03,ESE,112,1.0,7.0,54,0.00,,,0.00,meteohub,2013-10-04 19:52:00,
2013-10-04 14:57:00,88.9,70.2,30.03,SE,129,2.0,7.0,54,0.00,,,0.00,meteohub,2013-10-04 19:57:00,
2013-10-04 15:02:00,88.3,69.6,30.03,ESE,118,7.0,10.0,54,0.00,,,0.00,meteohub,2013-10-04 20:02:00,
2013-10-04 15:07:00,88.3,69.6,30.03,SE,138,2.0,10.0,54,0.00,,,0.00,meteohub,2013-10-04 20:07:00,
2013-10-04 15:12:00,88.5,70.3,30.02,SSW,205,1.0,10.0,55,0.00,,,0.00,meteohub,2013-10-04 20:12:00,
2013-10-04 15:17:00,88.7,70.5,30.02,East,90,3.0,10.0,55,0.00,,,0.00,meteohub,2013-10-04 20:17:00,
2013-10-04 15:22:00,88.9,70.7,30.02,ENE,61,1.0,8.0,55,0.00,,,0.00,meteohub,2013-10-04 20:22:00,
2013-10-04 15:27:00,89.1,69.6,30.02,East,91,2.0,8.0,53,0.00,,,0.00,meteohub,2013-10-04 20:27:00,
2013-10-04 15:32:00,88.9,70.2,30.02,ESE,110,2.0,8.0,54,0.00,,,0.00,meteohub,2013-10-04 20:32:00,
2013-10-04 15:37:00,89.1,70.2,30.02,East,81,7.0,8.0,54,0.00,,,0.00,meteohub,2013-10-04 20:37:00,
2013-10-04 15:42:00,89.1,70.2,30.01,ESE,122,8.0,8.0,54,0.00,,,0.00,meteohub,2013-10-04 20:42:00,
2013-10-04 15:47:00,89.1,69.6,30.01,East,100,2.0,8.0,53,0.00,,,0.00,meteohub,2013-10-04 20:47:00,
2013-10-04 15:52:00,88.9,68.9,30.01,SSE,154,2.0,9.0,52,0.00,,,0.00,meteohub,2013-10-04 20:52:00,
2013-10-04 15:57:00,88.3,69.6,30.02,East,87,2.0,9.0,54,0.00,,,0.00,meteohub,2013-10-04 20:57:00,
2013-10-04 16:02:00,88.2,69.4,30.01,ENE,75,3.0,9.0,54,0.00,,,0.00,meteohub,2013-10-04 21:02:00,
2013-10-04 16:07:00,88.0,70.3,30.01,SSE,164,3.0,10.0,56,0.00,,,0.00,meteohub,2013-10-04 21:07:00,
2013-10-04 16:12:00,88.0,69.8,30.02,SE,124,2.0,10.0,55,0.00,,,0.00,meteohub,2013-10-04 21:12:00,
2013-10-04 16:17:00,88.2,69.4,30.02,SE,133,5.0,10.0,54,0.00,,,0.00,meteohub,2013-10-04 21:17:00,
2013-10-04 16:22:00,88.3,70.2,30.02,SE,145,1.0,6.0,55,0.00,,,0.00,meteohub,2013-10-04 21:22:00,
2013-10-04 16:27:00,88.5,69.8,30.02,ESE,110,2.0,6.0,54,0.00,,,0.00,meteohub,2013-10-04 21:27:00,
2013-10-04 16:32:00,88.3,70.2,30.02,ESE,114,1.0,8.0,55,0.00,,,0.00,meteohub,2013-10-04 21:32:00,
2013-10-04 16:37:00,88.0,69.8,30.02,SE,138,0.0,9.0,55,0.00,,,0.00,meteohub,2013-10-04 21:37:00,
2013-10-04 16:42:00,87.4,69.3,30.01,SE,139,2.0,9.0,55,0.00,,,0.00,meteohub,2013-10-04 21:42:00,
2013-10-04 16:47:00,87.1,69.4,30.02,East,83,0.0,8.0,56,0.00,,,0.00,meteohub,2013-10-04 21:47:00,
2013-10-04 16:52:00,86.7,69.6,30.02,ESE,102,0.0,6.0,57,0.00,,,0.00,meteohub,2013-10-04 21:52:00,
2013-10-04 16:57:00,86.5,71.1,30.02,East,101,1.0,6.0,60,0.00,,,0.00,meteohub,2013-10-04 21:57:00,
2013-10-04 17:02:00,86.7,70.7,30.02,SE,145,0.0,3.0,59,0.00,,,0.00,meteohub,2013-10-04 22:02:00,
2013-10-04 17:07:00,86.7,70.7,30.02,SE,133,0.0,3.0,59,0.00,,,0.00,meteohub,2013-10-04 22:07:00,
2013-10-04 17:12:00,86.5,70.5,30.02,ESE,118,1.0,3.0,59,0.00,,,0.00,meteohub,2013-10-04 22:12:00,
2013-10-04 17:17:00,86.4,70.3,30.02,SE,138,0.0,3.0,59,0.00,,,0.00,meteohub,2013-10-04 22:17:00,
2013-10-04 17:22:00,86.5,70.0,30.02,ESE,122,0.0,3.0,58,0.00,,,0.00,meteohub,2013-10-04 22:22:00,
2013-10-04 17:27:00,86.5,70.5,30.02,SE,141,0.0,5.0,59,0.00,,,0.00,meteohub,2013-10-04 22:27:00,
2013-10-04 17:32:00,86.7,70.7,30.02,East,91,1.0,5.0,59,0.00,,,0.00,meteohub,2013-10-04 22:32:00,
2013-10-04 17:37:00,86.9,70.9,30.02,SE,126,1.0,5.0,59,0.00,,,0.00,meteohub,2013-10-04 22:37:00,
2013-10-04 17:42:00,86.7,70.7,30.03,SE,141,0.0,5.0,59,0.00,,,0.00,meteohub,2013-10-04 22:42:00,
2013-10-04 17:47:00,86.7,70.7,30.03,SSE,166,0.0,5.0,59,0.00,,,0.00,meteohub,2013-10-04 22:47:00,
2013-10-04 17:52:00,86.5,71.1,30.03,SSE,164,0.0,5.0,60,0.00,,,0.00,meteohub,2013-10-04 22:52:00,
2013-10-04 17:57:00,86.4,71.2,30.03,SE,142,0.0,3.0,61,0.00,,,0.00,meteohub,2013-10-04 22:57:00,
2013-10-04 18:02:00,85.8,71.8,30.03,SE,142,0.0,3.0,63,0.00,,,0.00,meteohub,2013-10-04 23:02:00,
2013-10-04 18:07:00,85.5,71.4,30.03,SE,142,0.0,3.0,63,0.00,,,0.00,meteohub,2013-10-04 23:07:00,
2013-10-04 18:12:00,85.1,71.6,30.03,SE,142,0.0,1.0,64,0.00,,,0.00,meteohub,2013-10-04 23:12:00,
2013-10-04 18:17:00,84.7,71.2,30.03,SE,142,0.0,0.0,64,0.00,,,0.00,meteohub,2013-10-04 23:17:00,
2013-10-04 18:22:00,84.0,71.4,30.03,SE,142,0.0,0.0,66,0.00,,,0.00,meteohub,2013-10-04 23:22:00,
2013-10-04 18:27:00,83.5,71.4,30.03,SE,142,0.0,0.0,67,0.00,,,0.00,meteohub,2013-10-04 23:27:00,
2013-10-04 18:32:00,82.9,71.8,30.03,SE,142,0.0,0.0,69,0.00,,,0.00,meteohub,2013-10-04 23:32:00,
2013-10-04 18:37:00,82.4,71.2,30.03,SE,142,0.0,0.0,69,0.00,,,0.00,meteohub,2013-10-04 23:37:00,
2013-10-04 18:42:00,81.9,71.6,30.03,SE,142,0.0,0.0,71,0.00,,,0.00,meteohub,2013-10-04 23:42:00,
2013-10-04 18:47:00,81.3,71.4,30.04,SE,142,0.0,0.0,72,0.00,,,0.00,meteohub,2013-10-04 23:47:00,
2013-10-04 18:52:00,81.0,71.4,30.04,SE,142,0.0,0.0,73,0.00,,,0.00,meteohub,2013-10-04 23:52:00,
2013-10-04 18:57:00,80.6,71.6,30.04,SE,142,0.0,0.0,74,0.00,,,0.00,meteohub,2013-10-04 23:57:00,
2013-10-04 19:02:00,80.2,71.6,30.04,SE,142,0.0,0.0,75,0.00,,,0.00,meteohub,2013-10-05 00:02:00,
2013-10-04 19:07:00,80.1,71.8,30.04,SE,142,0.0,0.0,76,0.00,,,0.00,meteohub,2013-10-05 00:07:00,
2013-10-04 19:12:00,79.7,71.4,30.04,SE,142,0.0,0.0,76,0.00,,,0.00,meteohub,2013-10-05 00:12:00,
2013-10-04 19:17:00,79.3,71.4,30.05,SE,142,0.0,0.0,77,0.00,,,0.00,meteohub,2013-10-05 00:17:00,
2013-10-04 19:22:00,79.2,71.2,30.05,SE,142,0.0,0.0,77,0.00,,,0.00,meteohub,2013-10-05 00:22:00,
2013-10-04 19:27:00,79.0,71.6,30.05,SE,142,0.0,0.0,78,0.00,,,0.00,meteohub,2013-10-05 00:27:00,
2013-10-04 19:32:00,78.6,71.2,30.05,SE,142,0.0,0.0,78,0.00,,,0.00,meteohub,2013-10-05 00:32:00,
2013-10-04 19:37:00,78.4,71.4,30.05,SE,142,0.0,0.0,79,0.00,,,0.00,meteohub,2013-10-05 00:37:00,
2013-10-04 19:42:00,78.4,71.8,30.05,SE,142,0.0,0.0,80,0.00,,,0.00,meteohub,2013-10-05 00:42:00,
2013-10-04 19:47:00,78.3,71.6,30.05,SE,142,0.0,0.0,80,0.00,,,0.00,meteohub,2013-10-05 00:47:00,
2013-10-04 19:52:00,78.1,71.4,30.05,SE,142,0.0,0.0,80,0.00,,,0.00,meteohub,2013-10-05 00:52:00,
2013-10-04 19:57:00,77.9,71.2,30.05,SE,142,0.0,0.0,80,0.00,,,0.00,meteohub,2013-10-05 00:57:00,
2013-10-04 20:02:00,77.7,71.4,30.05,SE,142,0.0,0.0,81,0.00,,,0.00,meteohub,2013-10-05 01:02:00,
2013-10-04 20:07:00,77.7,71.4,30.05,SE,142,0.0,0.0,81,0.00,,,0.00,meteohub,2013-10-05 01:07:00,
2013-10-04 20:12:00,77.7,71.8,30.05,SE,142,0.0,0.0,82,0.00,,,0.00,meteohub,2013-10-05 01:12:00,
2013-10-04 20:17:00,77.4,71.4,30.06,WSW,249,1.0,1.0,82,0.00,,,0.00,meteohub,2013-10-05 01:17:00,
2013-10-04 20:22:00,77.2,71.2,30.06,WSW,253,0.0,4.0,82,0.00,,,0.00,meteohub,2013-10-05 01:22:00,
2013-10-04 20:27:00,77.2,71.2,30.06,WSW,253,0.0,4.0,82,0.00,,,0.00,meteohub,2013-10-05 01:27:00,
2013-10-04 20:32:00,77.2,70.9,30.06,WSW,253,0.0,4.0,81,0.00,,,0.00,meteohub,2013-10-05 01:32:00,
2013-10-04 20:37:00,77.4,71.1,30.06,WSW,253,1.0,1.0,81,0.00,,,0.00,meteohub,2013-10-05 01:37:00,
2013-10-04 20:42:00,77.7,71.4,30.06,WSW,253,0.0,1.0,81,0.00,,,0.00,meteohub,2013-10-05 01:42:00,
2013-10-04 20:47:00,77.5,70.9,30.06,WSW,253,0.0,1.0,80,0.00,,,0.00,meteohub,2013-10-05 01:47:00,
2013-10-04 20:52:00,77.7,71.1,30.06,SW,222,1.0,1.0,80,0.00,,,0.00,meteohub,2013-10-05 01:52:00,
2013-10-04 20:57:00,77.7,71.1,30.06,SW,219,0.0,2.0,80,0.00,,,0.00,meteohub,2013-10-05 01:57:00,
2013-10-04 21:02:00,77.9,71.2,30.07,SW,219,0.0,2.0,80,0.00,,,0.00,meteohub,2013-10-05 02:02:00,
2013-10-04 21:07:00,77.7,71.1,30.07,SW,219,0.0,2.0,80,0.00,,,0.00,meteohub,2013-10-05 02:07:00,
2013-10-04 21:12:00,77.7,71.1,30.07,SW,219,0.0,1.0,80,0.00,,,0.00,meteohub,2013-10-05 02:12:00,
2013-10-04 21:17:00,77.7,71.4,30.07,SW,219,0.0,1.0,81,0.00,,,0.00,meteohub,2013-10-05 02:17:00,
2013-10-04 21:22:00,77.5,71.2,30.07,SSW,198,0.0,1.0,81,0.00,,,0.00,meteohub,2013-10-05 02:22:00,
2013-10-04 21:27:00,77.5,71.2,30.07,SSW,207,0.0,2.0,81,0.00,,,0.00,meteohub,2013-10-05 02:27:00,
2013-10-04 21:32:00,77.5,71.6,30.07,SSW,207,1.0,2.0,82,0.00,,,0.00,meteohub,2013-10-05 02:32:00,
2013-10-04 21:37:00,77.4,71.4,30.07,SSW,207,0.0,1.0,82,0.00,,,0.00,meteohub,2013-10-05 02:37:00,
2013-10-04 21:42:00,77.4,71.4,30.07,SSW,207,0.0,1.0,82,0.00,,,0.00,meteohub,2013-10-05 02:42:00,
2013-10-04 21:47:00,77.2,71.6,30.07,SE,134,1.0,1.0,83,0.00,,,0.00,meteohub,2013-10-05 02:47:00,
2013-10-04 21:52:00,77.0,71.4,30.08,SE,134,0.0,3.0,83,0.00,,,0.00,meteohub,2013-10-05 02:52:00,
2013-10-04 21:57:00,76.8,71.2,30.08,SE,134,0.0,3.0,83,0.00,,,0.00,meteohub,2013-10-05 02:57:00,
2013-10-04 22:02:00,76.6,71.4,30.08,SE,134,0.0,3.0,84,0.00,,,0.00,meteohub,2013-10-05 03:02:00,
2013-10-04 22:07:00,76.3,71.4,30.08,SE,134,0.0,1.0,85,0.00,,,0.00,meteohub,2013-10-05 03:07:00,
2013-10-04 22:12:00,75.9,71.1,30.08,SE,134,0.0,1.0,85,0.00,,,0.00,meteohub,2013-10-05 03:12:00,
2013-10-04 22:17:00,75.7,71.2,30.08,SE,134,0.0,1.0,86,0.00,,,0.00,meteohub,2013-10-05 03:17:00,
2013-10-04 22:22:00,75.7,71.2,30.08,SE,134,0.0,1.0,86,0.00,,,0.00,meteohub,2013-10-05 03:22:00,
2013-10-04 22:27:00,75.6,71.1,30.08,SE,134,0.0,1.0,86,0.00,,,0.00,meteohub,2013-10-05 03:27:00,
2013-10-04 22:32:00,75.4,71.2,30.08,SE,134,2.0,2.0,87,0.00,,,0.00,meteohub,2013-10-05 03:32:00,
2013-10-04 22:37:00,75.2,71.1,30.08,SE,134,0.0,2.0,87,0.00,,,0.00,meteohub,2013-10-05 03:37:00,
2013-10-04 22:42:00,75.0,71.2,30.08,SE,134,0.0,2.0,88,0.00,,,0.00,meteohub,2013-10-05 03:42:00,
2013-10-04 22:47:00,75.0,71.2,30.08,SE,134,1.0,2.0,88,0.00,,,0.00,meteohub,2013-10-05 03:47:00,
2013-10-04 22:52:00,75.2,71.4,30.08,SE,134,0.0,2.0,88,0.00,,,0.00,meteohub,2013-10-05 03:52:00,
2013-10-04 22:57:00,75.4,71.2,30.08,SE,134,0.0,2.0,87,0.00,,,0.00,meteohub,2013-10-05 03:57:00,
2013-10-04 23:01:00,75.4,71.6,30.08,SE,134,0.0,2.0,88,0.00,,,0.00,meteohub,2013-10-05 04:01:00,
2013-10-04 23:02:00,75.4,71.6,30.08,SE,134,0.0,2.0,88,0.00,,,0.00,meteohub,2013-10-05 04:02:00,
2013-10-04 23:03:00,75.4,71.6,30.08,SE,134,0.0,2.0,88,0.00,,,0.00,meteohub,2013-10-05 04:03:00,
2013-10-04 23:08:00,75.2,71.4,30.08,ESE,119,0.0,1.0,88,0.00,,,0.00,meteohub,2013-10-05 04:08:00,
2013-10-04 23:13:00,74.8,71.1,30.08,ESE,119,0.0,2.0,88,0.00,,,0.00,meteohub,2013-10-05 04:13:00,
2013-10-04 23:18:00,74.8,71.4,30.08,ESE,119,0.0,2.0,89,0.00,,,0.00,meteohub,2013-10-05 04:18:00,
2013-10-04 23:23:00,74.7,71.2,30.08,ESE,119,0.0,2.0,89,0.00,,,0.00,meteohub,2013-10-05 04:23:00,
2013-10-04 23:28:00,74.5,71.1,30.07,ESE,119,0.0,1.0,89,0.00,,,0.00,meteohub,2013-10-05 04:28:00,
2013-10-04 23:33:00,74.5,71.1,30.07,ESE,119,0.0,0.0,89,0.00,,,0.00,meteohub,2013-10-05 04:33:00,
2013-10-04 23:38:00,74.3,70.9,30.07,ESE,119,0.0,1.0,89,0.00,,,0.00,meteohub,2013-10-05 04:38:00,
2013-10-04 23:43:00,74.1,71.1,30.07,ESE,119,0.0,1.0,90,0.00,,,0.00,meteohub,2013-10-05 04:43:00,
2013-10-04 23:48:00,74.1,71.1,30.07,ESE,119,0.0,1.0,90,0.00,,,0.00,meteohub,2013-10-05 04:48:00,
2013-10-04 23:53:00,73.9,70.9,30.07,ESE,119,0.0,0.0,90,0.00,,,0.00,meteohub,2013-10-05 04:53:00,
2013-10-04 23:59:00,73.8,70.7,30.06,ESE,119,0.0,1.0,90,0.00,,,0.00,meteohub,2013-10-05 04:59:00,